Time;durP1;ratioP1;P1;durP2;ratioP2;P2;SDS_P1;SDS_P2;PMS_P1;PMS_P2;Temp;Humidity;BMP_temperature;BMP_pressure;BME280_temperature;BME280_humidity;BME280_pressure;Samples;Min_cycle;Max_cycle;Signal;HPM_P1;HPM_P2
2022/10/31 00:03:20;;;;;;;8.73;3.17;;;;;;;9.63;100.00;98203.59;18554228;32;20044;-62
2022/10/31 00:13:23;;;;;;;5.37;3.10;;;;;;;9.61;100.00;98218.41;18561061;31;20075;-62
2022/10/31 00:23:27;;;;;;;9.97;3.60;;;;;;;9.53;100.00;98216.13;18567266;32;20053;-61
2022/10/31 00:33:29;;;;;;;3.73;2.80;;;;;;;9.52;100.00;98211.81;18566862;32;20048;-62
2022/10/31 00:43:32;;;;;;;13.03;3.80;;;;;;;9.45;100.00;98206.59;18566086;32;20056;-61
2022/10/31 00:53:35;;;;;;;6.30;3.10;;;;;;;9.44;100.00;98210.34;18551095;32;20041;-62
2022/10/31 01:03:39;;;;;;;7.00;3.30;;;;;;;9.33;100.00;98207.50;18564827;32;20100;-61
2022/10/31 01:13:43;;;;;;;5.50;3.10;;;;;;;9.27;100.00;98200.41;18564085;32;20049;-61
2022/10/31 01:23:46;;;;;;;7.67;3.47;;;;;;;9.35;100.00;98196.47;18563374;32;20064;-61
2022/10/31 01:33:49;;;;;;;5.57;2.80;;;;;;;9.39;100.00;98191.41;18563023;32;20073;-61
2022/10/31 01:43:56;;;;;;;5.57;3.23;;;;;;;9.36;100.00;98187.31;18562235;32;20061;-62
2022/10/31 01:54:03;;;;;;;5.63;3.03;;;;;;;9.33;100.00;98182.38;18422849;32;20143;-62
2022/10/31 02:04:07;;;;;;;5.77;2.77;;;;;;;9.32;100.00;98183.47;18422903;32;20137;-62
2022/10/31 02:14:13;;;;;;;4.97;3.03;;;;;;;9.28;100.00;98174.25;18421757;32;20484;-62
2022/10/31 02:24:45;;;;;;;6.40;3.40;;;;;;;9.24;100.00;98167.72;18396527;32;20072;-61
2022/10/31 02:35:03;;;;;;;7.00;3.37;;;;;;;9.27;100.00;98156.41;18421612;32;20077;-62
2022/10/31 02:45:08;;;;;;;7.57;2.67;;;;;;;9.26;100.00;98152.91;18230489;32;20436;-64
2022/10/31 02:55:33;;;;;;;3.80;2.70;;;;;;;9.27;100.00;98141.03;18258442;32;20061;-64
2022/10/31 03:05:49;;;;;;;5.20;3.10;;;;;;;9.29;100.00;98132.69;18356687;32;20054;-62
2022/10/31 03:16:05;;;;;;;7.80;3.13;;;;;;;9.33;100.00;98133.81;18474211;32;20160;-61
2022/10/31 03:26:11;;;;;;;5.47;2.83;;;;;;;9.29;100.00;98133.50;18499445;32;20053;-62
2022/10/31 03:36:15;;;;;;;5.87;3.03;;;;;;;9.28;100.00;98126.47;18505430;32;20361;-62
2022/10/31 03:46:19;;;;;;;5.53;3.00;;;;;;;9.25;100.00;98131.53;18504711;32;20092;-61
2022/10/31 03:56:29;;;;;;;4.90;2.87;;;;;;;9.20;100.00;98123.41;18541313;32;20064;-62
2022/10/31 04:06:36;;;;;;;6.53;3.00;;;;;;;9.19;100.00;98119.88;18555379;32;20477;-62
2022/10/31 04:16:42;;;;;;;5.77;2.93;;;;;;;9.14;100.00;98109.84;18567918;32;20067;-62
2022/10/31 04:26:45;;;;;;;5.17;3.17;;;;;;;9.16;100.00;98106.91;18567688;32;20451;-62
2022/10/31 04:36:48;;;;;;;3.17;2.60;;;;;;;9.24;100.00;98100.25;18565821;32;20063;-64
2022/10/31 04:46:52;;;;;;;4.73;2.60;;;;;;;9.23;100.00;98109.41;18559291;32;20064;-64
2022/10/31 04:56:55;;;;;;;4.83;2.87;;;;;;;9.19;100.00;98105.59;18426521;32;20076;-64
2022/10/31 05:06:58;;;;;;;6.07;4.00;;;;;;;9.11;100.00;98110.34;18425847;32;20438;-66
2022/10/31 05:17:00;;;;;;;5.50;3.17;;;;;;;9.07;100.00;98113.78;18425191;32;20100;-64
2022/10/31 05:27:03;;;;;;;5.60;4.13;;;;;;;9.07;100.00;98098.44;18483209;32;20094;-62
2022/10/31 05:37:07;;;;;;;6.80;4.40;;;;;;;8.98;100.00;98097.22;18497986;32;20102;-64
2022/10/31 05:47:11;;;;;;;7.37;3.83;;;;;;;8.96;100.00;98088.53;18495470;32;20071;-62
2022/10/31 05:57:14;;;;;;;6.60;3.47;;;;;;;8.87;100.00;98087.37;18538228;32;20052;-62
2022/10/31 06:07:18;;;;;;;6.10;3.43;;;;;;;8.87;100.00;98080.06;18547453;32;20052;-61
2022/10/31 06:17:22;;;;;;;5.20;3.60;;;;;;;8.84;100.00;98079.75;18546617;32;20052;-62
2022/10/31 06:27:25;;;;;;;7.47;3.77;;;;;;;8.91;100.00;98080.41;18560814;32;20119;-62
2022/10/31 06:37:29;;;;;;;8.90;3.03;;;;;;;9.02;100.00;98067.84;18539327;32;20044;-62
2022/10/31 06:47:32;;;;;;;9.63;3.83;;;;;;;9.06;100.00;98067.13;18545741;32;20049;-62
2022/10/31 06:57:54;;;;;;;6.43;3.27;;;;;;;9.18;100.00;98085.06;18561003;32;20067;-62
2022/10/31 07:08:06;;;;;;;5.80;3.40;;;;;;;9.36;100.00;98100.94;18572287;32;20382;-62
2022/10/31 07:18:12;;;;;;;5.80;3.40;;;;;;;9.58;100.00;98097.41;18557556;32;20068;-62
2022/10/31 07:28:15;;;;;;;7.33;3.33;;;;;;;9.87;100.00;98113.38;18539820;32;20053;-62
2022/10/31 07:38:20;;;;;;;6.80;3.50;;;;;;;10.22;100.00;98117.50;18567816;32;20115;-62
2022/10/31 07:48:26;;;;;;;4.22;3.03;;;;;;;10.59;100.00;98117.59;18569535;32;20512;-63
2022/10/31 07:58:33;;;;;;;4.20;2.65;;;;;;;10.93;100.00;98130.78;18554956;31;20041;-62
2022/10/31 08:08:37;;;;;;;4.33;2.57;;;;;;;11.19;100.00;98134.44;18567345;32;20107;-62
2022/10/31 08:18:47;;;;;;;5.72;3.28;;;;;;;11.42;100.00;98135.09;18567573;32;20493;-62
2022/10/31 08:29:26;;;;;;;4.65;3.10;;;;;;;11.66;100.00;98135.50;18567014;32;20045;-62
2022/10/31 08:40:15;;;;;;;7.97;4.18;;;;;;;11.92;100.00;98132.03;18552718;32;20130;-62
2022/10/31 08:50:38;;;;;;;9.45;4.60;;;;;;;12.22;100.00;98103.37;18565730;32;20465;-62
2022/10/31 09:00:45;;;;;;;7.28;3.85;;;;;;;12.40;100.00;98096.59;18551429;32;20085;-62
2022/10/31 09:10:49;;;;;;;4.62;3.75;;;;;;;12.68;100.00;98097.94;18550256;32;20120;-61
2022/10/31 09:20:54;;;;;;;7.00;3.70;;;;;;;13.08;100.00;98090.81;18557259;32;20080;-61
2022/10/31 09:31:12;;;;;;;6.43;3.33;;;;;;;13.37;100.00;98090.19;18550246;32;20182;-62
2022/10/31 09:41:33;;;;;;;4.43;3.17;;;;;;;13.67;100.00;98075.66;18562480;32;20048;-62
2022/10/31 09:52:34;;;;;;;6.37;3.20;;;;;;;14.02;100.00;98073.81;18561489;32;20071;-62
2022/10/31 10:02:42;;;;;;;4.70;3.22;;;;;;;14.26;100.00;98072.28;18560982;32;20109;-62
2022/10/31 10:13:14;;;;;;;6.45;4.47;;;;;;;14.39;100.00;98072.44;18560070;32;20155;-62
2022/10/31 10:23:46;;;;;;;4.40;3.58;;;;;;;14.66;100.00;98084.78;18545163;32;20428;-62
2022/10/31 10:34:21;;;;;;;6.15;3.78;;;;;;;15.13;100.00;98074.22;18549196;32;20365;-62
2022/10/31 10:55:03;;;;;;;5.28;3.50;;;;;;;15.66;100.00;98058.81;18572806;32;20045;-62
2022/10/31 11:05:24;;;;;;;8.23;3.97;;;;;;;15.96;98.76;98048.63;18572250;32;20060;-62
2022/10/31 11:15:58;;;;;;;7.55;3.50;;;;;;;16.12;97.67;98033.63;18559454;32;20049;-62
2022/10/31 11:26:05;;;;;;;5.70;3.22;;;;;;;16.21;93.14;98007.31;18571143;32;20409;-62
2022/10/31 11:36:18;;;;;;;8.10;3.10;;;;;;;16.04;92.02;98007.03;18570519;32;20045;-62
2022/10/31 11:46:35;;;;;;;9.50;4.05;;;;;;;16.06;92.71;97996.63;18569870;32;20381;-62
2022/10/31 11:57:00;;;;;;;7.93;4.05;;;;;;;16.05;92.47;97956.84;18554476;32;20041;-62
2022/10/31 12:07:10;;;;;;;8.95;4.43;;;;;;;16.25;94.12;97926.47;18554453;32;20074;-62
2022/10/31 12:17:30;;;;;;;7.30;3.78;;;;;;;16.53;91.83;97915.56;18554237;32;20045;-63
2022/10/31 12:27:43;;;;;;;5.60;3.67;;;;;;;16.75;90.91;97924.97;18553113;32;20341;-62
2022/10/31 12:38:18;;;;;;;8.02;3.40;;;;;;;17.22;91.11;97905.72;18553053;32;20555;-62
2022/10/31 12:48:40;;;;;;;5.90;3.83;;;;;;;17.40;90.63;97871.12;18362857;32;20062;-62
2022/10/31 12:58:53;;;;;;;8.35;3.53;;;;;;;17.73;88.49;97855.28;18362086;32;20074;-62
2022/10/31 13:09:01;;;;;;;6.72;3.83;;;;;;;18.51;86.22;97823.91;18348804;32;20475;-62
2022/10/31 13:19:10;;;;;;;6.65;3.35;;;;;;;18.76;83.33;97825.09;18389499;32;20117;-62
2022/10/31 13:29:35;;;;;;;8.00;3.78;;;;;;;18.75;83.08;97806.25;18497618;32;20045;-63
2022/10/31 13:40:02;;;;;;;5.40;3.90;;;;;;;18.72;81.31;97791.25;18498511;32;20053;-63
2022/10/31 13:50:25;;;;;;;8.38;4.37;;;;;;;18.75;81.36;97756.94;18496371;32;20361;-62
2022/10/31 14:00:39;;;;;;;8.98;4.28;;;;;;;18.73;82.85;97735.38;18560347;32;20049;-62
2022/10/31 14:11:03;;;;;;;7.15;4.30;;;;;;;18.35;79.91;97721.47;18537606;32;20106;-63
2022/10/31 14:21:29;;;;;;;5.62;4.10;;;;;;;17.98;80.13;97718.16;18547088;32;20045;-62
2022/10/31 14:31:36;;;;;;;9.00;3.40;;;;;;;17.73;81.54;97737.69;18560684;32;20071;-62
2022/10/31 14:41:57;;;;;;;11.15;4.00;;;;;;;17.51;83.44;97718.59;18560104;32;20061;-62
2022/10/31 14:52:05;;;;;;;9.43;3.53;;;;;;;17.51;82.37;97713.94;18420420;32;20231;-62
2022/10/31 15:02:40;;;;;;;5.50;3.00;;;;;;;17.20;85.91;97703.81;18420847;32;20473;-62
2022/10/31 15:12:43;;;;;;;5.27;2.53;;;;;;;16.74;90.85;97688.53;18408048;32;20399;-62
2022/10/31 15:22:47;;;;;;;4.53;2.62;;;;;;;16.41;93.79;97699.66;18324944;32;20519;-62
2022/10/31 15:32:53;;;;;;;4.87;2.65;;;;;;;16.13;97.05;97712.56;18418722;32;20120;-62
2022/10/31 15:43:04;;;;;;;6.25;3.08;;;;;;;15.79;100.00;97716.47;18431273;32;20455;-62
2022/10/31 15:53:29;;;;;;;4.10;2.70;;;;;;;15.39;100.00;97736.06;18505764;32;20104;-63
2022/10/31 16:03:36;;;;;;;5.87;3.08;;;;;;;15.06;100.00;97727.88;18429948;32;20566;-62
2022/10/31 16:14:11;;;;;;;5.30;2.92;;;;;;;14.71;100.00;97751.84;18429513;32;20081;-62
2022/10/31 16:24:22;;;;;;;12.77;3.08;;;;;;;14.36;100.00;97767.53;18414104;32;20453;-62
2022/10/31 16:34:25;;;;;;;6.32;3.30;;;;;;;14.09;100.00;97747.22;18457631;32;20053;-62
2022/10/31 16:44:28;;;;;;;5.53;3.20;;;;;;;13.90;100.00;97761.56;18566315;32;20061;-62
2022/10/31 16:54:31;;;;;;;5.97;2.97;;;;;;;13.67;100.00;97760.44;18565577;32;20096;-62
2022/10/31 17:04:33;;;;;;;5.05;2.65;;;;;;;13.43;100.00;97775.91;18565140;32;20041;-63
2022/10/31 17:14:37;;;;;;;3.87;2.80;;;;;;;13.17;100.00;97782.34;18564562;32;20448;-62
2022/10/31 17:24:40;;;;;;;5.93;3.55;;;;;;;12.91;100.00;97805.34;18563729;32;20438;-62
2022/10/31 17:34:43;;;;;;;10.48;3.97;;;;;;;12.70;100.00;97791.91;18563252;32;20393;-62
2022/10/31 17:44:46;;;;;;;6.45;3.60;;;;;;;12.49;100.00;97804.78;18562432;32;20087;-62
2022/10/31 17:54:48;;;;;;;6.12;4.28;;;;;;;12.30;100.00;97813.53;18561956;32;20113;-62
2022/10/31 18:04:52;;;;;;;8.52;3.80;;;;;;;12.09;100.00;97823.66;18561735;32;20064;-62
2022/10/31 18:14:55;;;;;;;6.72;4.25;;;;;;;11.94;100.00;97820.97;18561483;32;20052;-62
2022/10/31 18:24:58;;;;;;;7.12;4.32;;;;;;;11.78;100.00;97804.72;18357625;32;20120;-63
2022/10/31 18:35:04;;;;;;;7.62;4.70;;;;;;;11.59;100.00;97792.84;18357951;32;20082;-62
2022/10/31 18:45:07;;;;;;;7.07;4.57;;;;;;;11.45;100.00;97804.22;18357250;32;20387;-62
2022/10/31 18:55:25;;;;;;;8.40;4.40;;;;;;;11.37;100.00;97796.66;18385017;32;20052;-62
2022/10/31 19:05:28;;;;;;;10.80;4.40;;;;;;;11.21;100.00;97795.88;18507688;32;20112;-62
2022/10/31 19:15:33;;;;;;;6.80;3.80;;;;;;;11.12;100.00;97790.16;18506978;32;20480;-62
2022/10/31 19:25:36;;;;;;;6.85;4.57;;;;;;;11.02;100.00;97779.34;18492271;32;20049;-62
2022/10/31 19:35:39;;;;;;;6.18;4.47;;;;;;;10.91;100.00;97772.28;18505524;32;20064;-62
2022/10/31 19:45:56;;;;;;;13.95;6.37;;;;;;;10.72;100.00;97764.72;18505168;32;20065;-62
2022/10/31 19:55:59;;;;;;;8.52;5.03;;;;;;;10.66;100.00;97760.37;18430435;32;20110;-62
2022/10/31 20:06:03;;;;;;;7.60;4.90;;;;;;;10.62;100.00;97770.94;18428836;32;20117;-62
2022/10/31 20:16:10;;;;;;;10.00;5.43;;;;;;;10.63;100.00;97769.84;18429157;32;20138;-62
2022/10/31 20:26:18;;;;;;;10.07;6.45;;;;;;;10.65;100.00;97756.88;18427717;32;20072;-62
2022/10/31 20:36:22;;;;;;;10.63;5.40;;;;;;;10.72;100.00;97762.00;18502115;32;20056;-62
2022/10/31 20:46:26;;;;;;;9.47;5.03;;;;;;;10.85;100.00;97761.50;18501516;32;20121;-62
2022/10/31 20:56:29;;;;;;;6.77;4.77;;;;;;;11.06;100.00;97768.78;18536400;32;20083;-62
2022/10/31 21:06:32;;;;;;;8.35;5.35;;;;;;;11.14;100.00;97771.78;18558504;32;20068;-62
2022/10/31 21:16:35;;;;;;;11.32;4.53;;;;;;;11.15;100.00;97778.78;18564245;32;20079;-62
2022/10/31 21:26:41;;;;;;;10.15;5.00;;;;;;;11.17;100.00;97771.22;18563912;32;20153;-62
2022/10/31 21:36:44;;;;;;;6.53;4.55;;;;;;;11.17;100.00;97771.22;18563421;32;20053;-62
2022/10/31 21:46:48;;;;;;;10.48;4.95;;;;;;;11.22;100.00;97775.00;18563345;32;20079;-62
2022/10/31 21:56:50;;;;;;;10.73;5.00;;;;;;;11.28;100.00;97780.16;18561786;31;20394;-62
2022/10/31 22:06:54;;;;;;;8.15;4.75;;;;;;;11.33;100.00;97784.75;18562388;32;20159;-62
2022/10/31 22:16:57;;;;;;;5.78;4.40;;;;;;;11.35;100.00;97785.31;18561327;32;20093;-62
2022/10/31 22:26:59;;;;;;;7.82;5.37;;;;;;;11.36;100.00;97771.50;18560799;32;20095;-62
2022/10/31 22:37:01;;;;;;;7.15;4.95;;;;;;;11.38;100.00;97775.81;18545549;32;20086;-62
2022/10/31 22:47:04;;;;;;;7.55;5.10;;;;;;;11.38;100.00;97773.13;18560184;32;20097;-62
2022/10/31 22:57:06;;;;;;;9.98;5.32;;;;;;;11.41;100.00;97754.41;18559493;31;20083;-62
2022/10/31 23:07:08;;;;;;;7.28;4.53;;;;;;;11.47;100.00;97747.91;18559606;32;20068;-62
2022/10/31 23:17:18;;;;;;;6.95;4.80;;;;;;;11.50;100.00;97758.19;18546217;32;20048;-62
2022/10/31 23:27:23;;;;;;;7.72;5.05;;;;;;;11.55;100.00;97753.84;18545913;32;20062;-62
2022/10/31 23:37:28;;;;;;;12.37;5.50;;;;;;;11.55;100.00;97748.44;18531699;32;20387;-62
2022/10/31 23:47:30;;;;;;;7.75;4.80;;;;;;;11.57;100.00;97760.63;18542152;32;20076;-62
2022/10/31 23:57:32;;;;;;;5.95;4.05;;;;;;;11.55;100.00;97751.16;18569110;32;20440;-62
